Terminal Aerodrome Forecast
Issued by NWS

Home | Current Version | Previous Version | Text Only | Print | Product List | Glossary On
Versions: 1 2 3 4 5 6 7 8 9 10 11 12 13
000
FTUS41 KRNK 240927 AAB
TAFBCB
TAF AMD
KBCB 240927Z 2409/2506 00000KT P6SM SKC
      TEMPO 2410/2412 3SM BR SCT003
     FM241230 VRB03KT P6SM SCT250
     FM241900 18006KT P6SM SCT050
     FM250000 00000KT P6SM SCT200=

USA.gov is the U.S. government's official web portal to all federal, state and local government web resources and services.